sensor_id;sensor_type;location;lat;lon;timestamp;P1;durP1;ratioP1;P2;durP2;ratioP2
6928;SDS011;3504;52.616;13.238;2023-08-31T00:01:25;5.17;;;4.57;;
6928;SDS011;3504;52.616;13.238;2023-08-31T00:06:25;5.13;;;4.70;;
6928;SDS011;3504;52.616;13.238;2023-08-31T00:11:26;5.03;;;4.53;;
6928;SDS011;3504;52.616;13.238;2023-08-31T00:16:26;5.40;;;4.67;;
6928;SDS011;3504;52.616;13.238;2023-08-31T00:21:27;5.43;;;4.90;;
6928;SDS011;3504;52.616;13.238;2023-08-31T00:26:28;5.53;;;5.03;;
6928;SDS011;3504;52.616;13.238;2023-08-31T00:31:32;6.00;;;5.30;;
6928;SDS011;3504;52.616;13.238;2023-08-31T00:36:33;6.47;;;5.43;;
6928;SDS011;3504;52.616;13.238;2023-08-31T00:41:34;6.40;;;5.70;;
6928;SDS011;3504;52.616;13.238;2023-08-31T00:46:34;6.97;;;6.20;;
6928;SDS011;3504;52.616;13.238;2023-08-31T00:51:36;7.23;;;6.53;;
6928;SDS011;3504;52.616;13.238;2023-08-31T00:56:37;8.13;;;7.03;;
6928;SDS011;3504;52.616;13.238;2023-08-31T01:01:51;7.83;;;7.13;;
6928;SDS011;3504;52.616;13.238;2023-08-31T01:12:50;7.93;;;7.13;;
6928;SDS011;3504;52.616;13.238;2023-08-31T01:17:59;10.10;;;7.60;;
6928;SDS011;3504;52.616;13.238;2023-08-31T01:23:02;8.60;;;7.70;;
6928;SDS011;3504;52.616;13.238;2023-08-31T01:28:10;8.53;;;7.13;;
6928;SDS011;3504;52.616;13.238;2023-08-31T01:33:11;10.03;;;7.07;;
6928;SDS011;3504;52.616;13.238;2023-08-31T01:38:12;6.93;;;6.33;;
6928;SDS011;3504;52.616;13.238;2023-08-31T01:43:18;6.70;;;6.10;;
6928;SDS011;3504;52.616;13.238;2023-08-31T01:48:21;6.10;;;5.13;;
6928;SDS011;3504;52.616;13.238;2023-08-31T01:53:22;4.47;;;4.07;;
6928;SDS011;3504;52.616;13.238;2023-08-31T01:58:22;4.77;;;3.93;;
6928;SDS011;3504;52.616;13.238;2023-08-31T02:03:23;3.90;;;3.50;;
6928;SDS011;3504;52.616;13.238;2023-08-31T02:08:23;3.87;;;3.40;;
6928;SDS011;3504;52.616;13.238;2023-08-31T02:13:25;4.17;;;3.50;;
6928;SDS011;3504;52.616;13.238;2023-08-31T02:18:25;4.20;;;3.80;;
6928;SDS011;3504;52.616;13.238;2023-08-31T02:23:26;5.23;;;3.40;;
6928;SDS011;3504;52.616;13.238;2023-08-31T02:28:26;4.20;;;3.80;;
6928;SDS011;3504;52.616;13.238;2023-08-31T02:33:27;4.23;;;3.73;;
6928;SDS011;3504;52.616;13.238;2023-08-31T02:38:27;3.70;;;3.40;;
6928;SDS011;3504;52.616;13.238;2023-08-31T02:43:28;4.93;;;3.60;;
6928;SDS011;3504;52.616;13.238;2023-08-31T02:48:31;4.13;;;3.73;;
6928;SDS011;3504;52.616;13.238;2023-08-31T02:53:32;4.87;;;3.20;;
6928;SDS011;3504;52.616;13.238;2023-08-31T02:58:33;3.60;;;3.30;;
6928;SDS011;3504;52.616;13.238;2023-08-31T03:03:34;3.70;;;3.40;;
6928;SDS011;3504;52.616;13.238;2023-08-31T03:08:35;5.13;;;3.70;;
6928;SDS011;3504;52.616;13.238;2023-08-31T03:13:37;3.87;;;3.53;;
6928;SDS011;3504;52.616;13.238;2023-08-31T03:18:38;4.57;;;3.60;;
6928;SDS011;3504;52.616;13.238;2023-08-31T03:23:38;3.23;;;2.97;;
6928;SDS011;3504;52.616;13.238;2023-08-31T03:28:39;3.50;;;3.20;;
6928;SDS011;3504;52.616;13.238;2023-08-31T03:33:41;3.97;;;3.30;;
6928;SDS011;3504;52.616;13.238;2023-08-31T03:38:43;3.80;;;3.43;;
6928;SDS011;3504;52.616;13.238;2023-08-31T03:43:44;4.47;;;3.57;;
6928;SDS011;3504;52.616;13.238;2023-08-31T03:48:45;4.10;;;3.70;;
6928;SDS011;3504;52.616;13.238;2023-08-31T03:53:45;4.40;;;4.00;;
6928;SDS011;3504;52.616;13.238;2023-08-31T03:58:46;4.70;;;4.20;;
6928;SDS011;3504;52.616;13.238;2023-08-31T04:03:47;4.23;;;3.83;;
6928;SDS011;3504;52.616;13.238;2023-08-31T04:08:48;6.27;;;4.40;;
6928;SDS011;3504;52.616;13.238;2023-08-31T04:13:49;5.33;;;4.53;;
6928;SDS011;3504;52.616;13.238;2023-08-31T04:18:50;5.43;;;4.90;;
6928;SDS011;3504;52.616;13.238;2023-08-31T04:23:51;5.50;;;5.00;;
6928;SDS011;3504;52.616;13.238;2023-08-31T04:28:52;7.43;;;5.63;;
6928;SDS011;3504;52.616;13.238;2023-08-31T04:33:52;8.07;;;6.87;;
6928;SDS011;3504;52.616;13.238;2023-08-31T04:38:56;7.53;;;6.73;;
6928;SDS011;3504;52.616;13.238;2023-08-31T04:43:56;9.87;;;7.57;;
6928;SDS011;3504;52.616;13.238;2023-08-31T04:48:57;9.70;;;7.50;;
6928;SDS011;3504;52.616;13.238;2023-08-31T04:53:58;9.13;;;8.17;;
6928;SDS011;3504;52.616;13.238;2023-08-31T04:58:59;10.60;;;8.40;;
6928;SDS011;3504;52.616;13.238;2023-08-31T05:04:02;11.93;;;9.63;;
6928;SDS011;3504;52.616;13.238;2023-08-31T05:09:03;10.00;;;8.73;;
6928;SDS011;3504;52.616;13.238;2023-08-31T05:14:04;12.37;;;9.87;;
6928;SDS011;3504;52.616;13.238;2023-08-31T05:19:04;12.00;;;9.47;;
6928;SDS011;3504;52.616;13.238;2023-08-31T05:24:05;11.27;;;9.50;;
6928;SDS011;3504;52.616;13.238;2023-08-31T05:29:05;11.17;;;8.50;;
6928;SDS011;3504;52.616;13.238;2023-08-31T05:34:06;11.47;;;9.23;;
6928;SDS011;3504;52.616;13.238;2023-08-31T05:39:06;12.97;;;9.70;;
6928;SDS011;3504;52.616;13.238;2023-08-31T05:44:08;11.10;;;8.97;;
6928;SDS011;3504;52.616;13.238;2023-08-31T05:49:09;13.23;;;10.10;;
6928;SDS011;3504;52.616;13.238;2023-08-31T05:54:10;13.60;;;10.67;;
6928;SDS011;3504;52.616;13.238;2023-08-31T05:59:13;12.67;;;10.07;;
6928;SDS011;3504;52.616;13.238;2023-08-31T06:04:13;11.90;;;10.60;;
6928;SDS011;3504;52.616;13.238;2023-08-31T06:09:14;14.23;;;10.60;;
6928;SDS011;3504;52.616;13.238;2023-08-31T06:14:14;16.40;;;10.40;;
6928;SDS011;3504;52.616;13.238;2023-08-31T06:19:15;11.93;;;10.63;;
6928;SDS011;3504;52.616;13.238;2023-08-31T06:24:15;13.07;;;9.93;;
6928;SDS011;3504;52.616;13.238;2023-08-31T06:29:16;14.27;;;9.80;;
6928;SDS011;3504;52.616;13.238;2023-08-31T06:34:16;13.20;;;10.37;;
6928;SDS011;3504;52.616;13.238;2023-08-31T06:39:17;12.60;;;10.50;;
6928;SDS011;3504;52.616;13.238;2023-08-31T06:44:18;14.63;;;10.50;;
6928;SDS011;3504;52.616;13.238;2023-08-31T06:49:18;13.63;;;10.10;;
6928;SDS011;3504;52.616;13.238;2023-08-31T06:54:19;12.30;;;9.30;;
6928;SDS011;3504;52.616;13.238;2023-08-31T06:59:20;10.13;;;8.53;;
6928;SDS011;3504;52.616;13.238;2023-08-31T07:04:20;9.77;;;8.77;;
6928;SDS011;3504;52.616;13.238;2023-08-31T07:09:21;15.07;;;9.27;;
6928;SDS011;3504;52.616;13.238;2023-08-31T07:14:21;11.33;;;7.90;;
6928;SDS011;3504;52.616;13.238;2023-08-31T07:19:22;11.77;;;8.60;;
6928;SDS011;3504;52.616;13.238;2023-08-31T07:24:22;12.13;;;7.77;;
6928;SDS011;3504;52.616;13.238;2023-08-31T07:29:23;10.13;;;7.40;;
6928;SDS011;3504;52.616;13.238;2023-08-31T07:34:24;11.13;;;7.20;;
6928;SDS011;3504;52.616;13.238;2023-08-31T07:39:25;11.33;;;6.83;;
6928;SDS011;3504;52.616;13.238;2023-08-31T07:44:26;8.70;;;5.70;;
6928;SDS011;3504;52.616;13.238;2023-08-31T07:49:27;9.50;;;5.73;;
6928;SDS011;3504;52.616;13.238;2023-08-31T07:54:27;8.53;;;5.70;;
6928;SDS011;3504;52.616;13.238;2023-08-31T07:59:28;7.33;;;5.43;;
6928;SDS011;3504;52.616;13.238;2023-08-31T08:04:28;7.77;;;4.90;;
6928;SDS011;3504;52.616;13.238;2023-08-31T08:09:29;8.33;;;4.70;;
6928;SDS011;3504;52.616;13.238;2023-08-31T08:14:30;8.00;;;3.77;;
6928;SDS011;3504;52.616;13.238;2023-08-31T08:19:30;5.45;;;3.72;;
6928;SDS011;3504;52.616;13.238;2023-08-31T08:24:31;7.60;;;4.00;;
6928;SDS011;3504;52.616;13.238;2023-08-31T08:29:31;4.73;;;3.03;;
6928;SDS011;3504;52.616;13.238;2023-08-31T08:34:32;6.73;;;2.97;;
6928;SDS011;3504;52.616;13.238;2023-08-31T08:39:32;9.88;;;3.13;;
6928;SDS011;3504;52.616;13.238;2023-08-31T08:44:33;6.00;;;2.78;;
6928;SDS011;3504;52.616;13.238;2023-08-31T08:49:36;4.32;;;2.38;;
6928;SDS011;3504;52.616;13.238;2023-08-31T08:54:37;4.57;;;2.10;;
6928;SDS011;3504;52.616;13.238;2023-08-31T08:59:38;3.13;;;2.42;;
6928;SDS011;3504;52.616;13.238;2023-08-31T09:04:38;2.88;;;2.00;;
6928;SDS011;3504;52.616;13.238;2023-08-31T09:09:47;4.70;;;1.95;;
6928;SDS011;3504;52.616;13.238;2023-08-31T09:14:57;2.88;;;1.83;;
6928;SDS011;3504;52.616;13.238;2023-08-31T09:20:00;5.03;;;1.92;;
6928;SDS011;3504;52.616;13.238;2023-08-31T09:25:03;2.97;;;1.80;;
6928;SDS011;3504;52.616;13.238;2023-08-31T09:30:05;3.83;;;1.85;;
6928;SDS011;3504;52.616;13.238;2023-08-31T09:35:10;2.88;;;1.70;;
6928;SDS011;3504;52.616;13.238;2023-08-31T09:40:14;3.75;;;1.67;;
6928;SDS011;3504;52.616;13.238;2023-08-31T09:45:16;2.92;;;1.80;;
6928;SDS011;3504;52.616;13.238;2023-08-31T09:50:24;3.92;;;2.30;;
6928;SDS011;3504;52.616;13.238;2023-08-31T09:55:27;2.92;;;1.75;;
6928;SDS011;3504;52.616;13.238;2023-08-31T10:00:29;3.13;;;1.58;;
6928;SDS011;3504;52.616;13.238;2023-08-31T10:05:31;3.45;;;1.60;;
6928;SDS011;3504;52.616;13.238;2023-08-31T10:10:33;4.45;;;1.73;;
6928;SDS011;3504;52.616;13.238;2023-08-31T10:15:35;3.30;;;1.67;;
6928;SDS011;3504;52.616;13.238;2023-08-31T10:20:36;2.13;;;1.60;;
6928;SDS011;3504;52.616;13.238;2023-08-31T10:31:04;5.05;;;1.90;;
6928;SDS011;3504;52.616;13.238;2023-08-31T10:36:14;5.45;;;2.10;;
6928;SDS011;3504;52.616;13.238;2023-08-31T10:51:30;2.38;;;1.63;;
6928;SDS011;3504;52.616;13.238;2023-08-31T10:56:32;5.63;;;1.80;;
6928;SDS011;3504;52.616;13.238;2023-08-31T11:07:25;2.22;;;1.40;;
6928;SDS011;3504;52.616;13.238;2023-08-31T11:12:21;2.60;;;1.27;;
6928;SDS011;3504;52.616;13.238;2023-08-31T11:17:24;4.00;;;1.90;;
6928;SDS011;3504;52.616;13.238;2023-08-31T11:22:25;3.70;;;1.75;;
6928;SDS011;3504;52.616;13.238;2023-08-31T11:27:26;3.38;;;1.67;;
6928;SDS011;3504;52.616;13.238;2023-08-31T11:32:26;3.35;;;1.90;;
6928;SDS011;3504;52.616;13.238;2023-08-31T11:37:27;3.20;;;1.70;;
6928;SDS011;3504;52.616;13.238;2023-08-31T11:42:28;3.53;;;1.63;;
6928;SDS011;3504;52.616;13.238;2023-08-31T11:47:28;3.00;;;1.83;;
6928;SDS011;3504;52.616;13.238;2023-08-31T11:52:30;3.20;;;1.98;;
6928;SDS011;3504;52.616;13.238;2023-08-31T11:57:31;4.47;;;2.05;;
6928;SDS011;3504;52.616;13.238;2023-08-31T12:02:35;9.30;;;3.67;;
6928;SDS011;3504;52.616;13.238;2023-08-31T12:07:39;10.35;;;4.40;;
6928;SDS011;3504;52.616;13.238;2023-08-31T12:12:41;4.40;;;3.03;;
6928;SDS011;3504;52.616;13.238;2023-08-31T12:17:41;6.22;;;3.28;;
6928;SDS011;3504;52.616;13.238;2023-08-31T12:22:45;3.63;;;3.13;;
6928;SDS011;3504;52.616;13.238;2023-08-31T12:27:45;5.65;;;3.10;;
6928;SDS011;3504;52.616;13.238;2023-08-31T12:32:49;5.15;;;2.78;;
6928;SDS011;3504;52.616;13.238;2023-08-31T12:37:49;8.32;;;3.13;;
6928;SDS011;3504;52.616;13.238;2023-08-31T12:42:50;5.55;;;2.97;;
6928;SDS011;3504;52.616;13.238;2023-08-31T12:47:50;5.05;;;2.67;;
6928;SDS011;3504;52.616;13.238;2023-08-31T12:52:51;5.60;;;2.80;;
6928;SDS011;3504;52.616;13.238;2023-08-31T12:57:51;4.30;;;3.47;;
6928;SDS011;3504;52.616;13.238;2023-08-31T13:02:52;4.10;;;3.33;;
6928;SDS011;3504;52.616;13.238;2023-08-31T13:07:52;3.75;;;3.38;;
6928;SDS011;3504;52.616;13.238;2023-08-31T13:12:53;4.45;;;3.00;;
6928;SDS011;3504;52.616;13.238;2023-08-31T13:17:53;4.95;;;4.00;;
6928;SDS011;3504;52.616;13.238;2023-08-31T13:22:53;7.22;;;3.80;;
6928;SDS011;3504;52.616;13.238;2023-08-31T13:27:54;5.75;;;3.75;;
6928;SDS011;3504;52.616;13.238;2023-08-31T13:32:54;3.17;;;2.88;;
6928;SDS011;3504;52.616;13.238;2023-08-31T13:37:55;3.30;;;2.80;;
6928;SDS011;3504;52.616;13.238;2023-08-31T13:42:57;2.85;;;2.63;;
6928;SDS011;3504;52.616;13.238;2023-08-31T13:48:03;3.83;;;2.97;;
6928;SDS011;3504;52.616;13.238;2023-08-31T13:53:04;3.22;;;2.33;;
6928;SDS011;3504;52.616;13.238;2023-08-31T13:58:05;3.92;;;2.70;;
6928;SDS011;3504;52.616;13.238;2023-08-31T14:03:08;3.17;;;2.13;;
6928;SDS011;3504;52.616;13.238;2023-08-31T14:08:09;2.70;;;2.22;;
6928;SDS011;3504;52.616;13.238;2023-08-31T14:13:09;3.08;;;2.28;;
6928;SDS011;3504;52.616;13.238;2023-08-31T14:18:10;2.95;;;2.58;;
6928;SDS011;3504;52.616;13.238;2023-08-31T14:23:10;3.05;;;2.80;;
6928;SDS011;3504;52.616;13.238;2023-08-31T14:28:11;3.90;;;2.60;;
6928;SDS011;3504;52.616;13.238;2023-08-31T14:33:11;4.60;;;2.13;;
6928;SDS011;3504;52.616;13.238;2023-08-31T14:38:12;2.57;;;1.90;;
6928;SDS011;3504;52.616;13.238;2023-08-31T14:43:20;3.97;;;2.17;;
6928;SDS011;3504;52.616;13.238;2023-08-31T14:48:21;3.30;;;2.67;;
6928;SDS011;3504;52.616;13.238;2023-08-31T14:53:21;2.73;;;2.13;;
6928;SDS011;3504;52.616;13.238;2023-08-31T14:58:24;6.13;;;3.20;;
6928;SDS011;3504;52.616;13.238;2023-08-31T15:03:25;5.17;;;4.50;;
6928;SDS011;3504;52.616;13.238;2023-08-31T15:08:39;7.97;;;6.17;;
6928;SDS011;3504;52.616;13.238;2023-08-31T15:13:41;2.53;;;2.07;;
6928;SDS011;3504;52.616;13.238;2023-08-31T15:18:42;3.23;;;1.80;;
6928;SDS011;3504;52.616;13.238;2023-08-31T15:23:43;3.80;;;2.30;;
6928;SDS011;3504;52.616;13.238;2023-08-31T15:28:47;1.67;;;1.50;;
6928;SDS011;3504;52.616;13.238;2023-08-31T15:33:47;2.53;;;2.00;;
6928;SDS011;3504;52.616;13.238;2023-08-31T15:38:48;4.23;;;2.80;;
6928;SDS011;3504;52.616;13.238;2023-08-31T15:43:49;1.97;;;1.70;;
6928;SDS011;3504;52.616;13.238;2023-08-31T15:48:50;4.20;;;2.90;;
6928;SDS011;3504;52.616;13.238;2023-08-31T15:53:52;2.63;;;1.80;;
6928;SDS011;3504;52.616;13.238;2023-08-31T15:58:52;1.83;;;1.67;;
6928;SDS011;3504;52.616;13.238;2023-08-31T16:03:52;6.87;;;3.90;;
6928;SDS011;3504;52.616;13.238;2023-08-31T16:08:53;6.40;;;3.60;;
6928;SDS011;3504;52.616;13.238;2023-08-31T16:13:54;5.67;;;2.30;;
6928;SDS011;3504;52.616;13.238;2023-08-31T16:18:54;3.63;;;2.23;;
6928;SDS011;3504;52.616;13.238;2023-08-31T16:23:55;3.00;;;1.70;;
6928;SDS011;3504;52.616;13.238;2023-08-31T16:28:55;1.87;;;1.70;;
6928;SDS011;3504;52.616;13.238;2023-08-31T16:33:56;2.60;;;1.67;;
6928;SDS011;3504;52.616;13.238;2023-08-31T16:38:56;1.70;;;1.60;;
6928;SDS011;3504;52.616;13.238;2023-08-31T16:43:57;2.53;;;1.80;;
6928;SDS011;3504;52.616;13.238;2023-08-31T16:48:57;2.37;;;1.60;;
6928;SDS011;3504;52.616;13.238;2023-08-31T16:53:58;3.07;;;1.70;;
6928;SDS011;3504;52.616;13.238;2023-08-31T16:58:59;2.20;;;2.00;;
6928;SDS011;3504;52.616;13.238;2023-08-31T17:03:59;3.10;;;2.00;;
6928;SDS011;3504;52.616;13.238;2023-08-31T17:09:00;4.13;;;2.23;;
6928;SDS011;3504;52.616;13.238;2023-08-31T17:14:01;2.40;;;2.20;;
6928;SDS011;3504;52.616;13.238;2023-08-31T17:19:04;2.50;;;1.87;;
6928;SDS011;3504;52.616;13.238;2023-08-31T17:24:05;3.40;;;2.17;;
6928;SDS011;3504;52.616;13.238;2023-08-31T17:29:06;6.70;;;2.20;;
6928;SDS011;3504;52.616;13.238;2023-08-31T17:34:06;1.93;;;1.77;;
6928;SDS011;3504;52.616;13.238;2023-08-31T17:39:07;2.10;;;1.90;;
6928;SDS011;3504;52.616;13.238;2023-08-31T17:44:07;3.40;;;1.97;;
6928;SDS011;3504;52.616;13.238;2023-08-31T17:49:08;4.30;;;2.97;;
6928;SDS011;3504;52.616;13.238;2023-08-31T17:54:08;2.90;;;2.20;;
6928;SDS011;3504;52.616;13.238;2023-08-31T17:59:09;2.40;;;2.07;;
6928;SDS011;3504;52.616;13.238;2023-08-31T18:04:14;4.07;;;2.37;;
6928;SDS011;3504;52.616;13.238;2023-08-31T18:09:15;2.57;;;2.13;;
6928;SDS011;3504;52.616;13.238;2023-08-31T18:14:15;2.30;;;1.80;;
6928;SDS011;3504;52.616;13.238;2023-08-31T18:19:16;5.67;;;3.47;;
6928;SDS011;3504;52.616;13.238;2023-08-31T18:24:17;7.47;;;4.77;;
6928;SDS011;3504;52.616;13.238;2023-08-31T18:29:17;8.50;;;4.60;;
6928;SDS011;3504;52.616;13.238;2023-08-31T18:34:18;4.90;;;3.33;;
6928;SDS011;3504;52.616;13.238;2023-08-31T18:39:18;5.33;;;3.80;;
6928;SDS011;3504;52.616;13.238;2023-08-31T18:44:19;3.60;;;2.87;;
6928;SDS011;3504;52.616;13.238;2023-08-31T18:49:20;3.63;;;2.80;;
6928;SDS011;3504;52.616;13.238;2023-08-31T18:54:21;2.63;;;2.33;;
6928;SDS011;3504;52.616;13.238;2023-08-31T18:59:21;3.07;;;2.37;;
6928;SDS011;3504;52.616;13.238;2023-08-31T19:04:22;3.60;;;2.47;;
6928;SDS011;3504;52.616;13.238;2023-08-31T19:09:22;3.13;;;2.20;;
6928;SDS011;3504;52.616;13.238;2023-08-31T19:14:23;4.63;;;2.43;;
6928;SDS011;3504;52.616;13.238;2023-08-31T19:19:23;2.30;;;2.10;;
6928;SDS011;3504;52.616;13.238;2023-08-31T19:24:24;2.30;;;2.10;;
6928;SDS011;3504;52.616;13.238;2023-08-31T19:29:24;4.93;;;2.40;;
6928;SDS011;3504;52.616;13.238;2023-08-31T19:34:25;2.73;;;2.53;;
6928;SDS011;3504;52.616;13.238;2023-08-31T19:39:25;3.53;;;2.70;;
6928;SDS011;3504;52.616;13.238;2023-08-31T19:44:26;4.50;;;3.07;;
6928;SDS011;3504;52.616;13.238;2023-08-31T19:49:26;4.37;;;3.83;;
6928;SDS011;3504;52.616;13.238;2023-08-31T19:54:27;4.00;;;3.60;;
6928;SDS011;3504;52.616;13.238;2023-08-31T19:59:27;4.07;;;3.30;;
6928;SDS011;3504;52.616;13.238;2023-08-31T20:04:28;3.77;;;2.60;;
6928;SDS011;3504;52.616;13.238;2023-08-31T20:09:28;4.07;;;3.00;;
6928;SDS011;3504;52.616;13.238;2023-08-31T20:14:29;3.23;;;3.03;;
6928;SDS011;3504;52.616;13.238;2023-08-31T20:19:29;3.07;;;2.77;;
6928;SDS011;3504;52.616;13.238;2023-08-31T20:24:30;3.07;;;2.63;;
6928;SDS011;3504;52.616;13.238;2023-08-31T20:29:31;4.40;;;2.77;;
6928;SDS011;3504;52.616;13.238;2023-08-31T20:34:32;3.03;;;2.40;;
6928;SDS011;3504;52.616;13.238;2023-08-31T20:39:33;4.57;;;3.10;;
6928;SDS011;3504;52.616;13.238;2023-08-31T20:44:36;3.77;;;2.90;;
6928;SDS011;3504;52.616;13.238;2023-08-31T20:49:38;3.03;;;2.67;;
6928;SDS011;3504;52.616;13.238;2023-08-31T20:54:39;3.27;;;2.57;;
6928;SDS011;3504;52.616;13.238;2023-08-31T20:59:40;5.43;;;2.80;;
6928;SDS011;3504;52.616;13.238;2023-08-31T21:04:40;2.83;;;2.40;;
6928;SDS011;3504;52.616;13.238;2023-08-31T21:09:41;4.20;;;2.40;;
6928;SDS011;3504;52.616;13.238;2023-08-31T21:14:43;3.10;;;2.80;;
6928;SDS011;3504;52.616;13.238;2023-08-31T21:19:44;4.20;;;2.93;;
6928;SDS011;3504;52.616;13.238;2023-08-31T21:24:44;3.63;;;3.20;;
6928;SDS011;3504;52.616;13.238;2023-08-31T21:29:45;3.83;;;3.00;;
6928;SDS011;3504;52.616;13.238;2023-08-31T21:34:45;6.67;;;3.50;;
6928;SDS011;3504;52.616;13.238;2023-08-31T21:39:46;3.77;;;3.20;;
6928;SDS011;3504;52.616;13.238;2023-08-31T21:44:47;3.47;;;3.00;;
6928;SDS011;3504;52.616;13.238;2023-08-31T21:49:47;3.70;;;3.40;;
6928;SDS011;3504;52.616;13.238;2023-08-31T21:54:47;6.33;;;2.93;;
6928;SDS011;3504;52.616;13.238;2023-08-31T21:59:48;5.10;;;2.73;;
6928;SDS011;3504;52.616;13.238;2023-08-31T22:04:48;3.00;;;2.70;;
6928;SDS011;3504;52.616;13.238;2023-08-31T22:09:50;2.90;;;2.70;;
6928;SDS011;3504;52.616;13.238;2023-08-31T22:14:52;4.33;;;2.90;;
6928;SDS011;3504;52.616;13.238;2023-08-31T22:19:52;3.77;;;3.20;;
6928;SDS011;3504;52.616;13.238;2023-08-31T22:24:54;3.03;;;2.80;;
6928;SDS011;3504;52.616;13.238;2023-08-31T22:29:55;4.47;;;3.00;;
6928;SDS011;3504;52.616;13.238;2023-08-31T22:34:55;4.33;;;3.10;;
6928;SDS011;3504;52.616;13.238;2023-08-31T22:39:56;4.33;;;2.90;;
6928;SDS011;3504;52.616;13.238;2023-08-31T22:44:57;4.17;;;3.37;;
6928;SDS011;3504;52.616;13.238;2023-08-31T22:49:58;3.30;;;2.63;;
6928;SDS011;3504;52.616;13.238;2023-08-31T22:54:59;4.73;;;2.60;;
6928;SDS011;3504;52.616;13.238;2023-08-31T23:00:00;3.10;;;2.80;;
6928;SDS011;3504;52.616;13.238;2023-08-31T23:05:00;3.47;;;2.70;;
6928;SDS011;3504;52.616;13.238;2023-08-31T23:10:01;3.60;;;2.83;;
6928;SDS011;3504;52.616;13.238;2023-08-31T23:15:02;3.67;;;2.70;;
6928;SDS011;3504;52.616;13.238;2023-08-31T23:20:02;3.87;;;3.00;;
6928;SDS011;3504;52.616;13.238;2023-08-31T23:25:05;7.40;;;3.37;;
6928;SDS011;3504;52.616;13.238;2023-08-31T23:30:07;3.33;;;2.77;;
6928;SDS011;3504;52.616;13.238;2023-08-31T23:35:08;4.63;;;3.23;;
6928;SDS011;3504;52.616;13.238;2023-08-31T23:40:08;3.50;;;3.10;;
6928;SDS011;3504;52.616;13.238;2023-08-31T23:45:11;4.13;;;3.23;;
6928;SDS011;3504;52.616;13.238;2023-08-31T23:50:11;4.07;;;3.20;;
6928;SDS011;3504;52.616;13.238;2023-08-31T23:55:12;3.53;;;3.23;;
